Terminal Aerodrome Forecast
Issued by NWS Shreveport, LA

Home | Current Version | Previous Version | Text Only | Print | Product List | Glossary On
Versions: 1 2 3 4 5 6 7 8 9 10 11 12
000
FTUS44 KSHV 301752
TAFSHV
TAF
KSHV 301752Z 3018/3118 02008KT P6SM VCTS BKN050CB BKN100
      TEMPO 3019/3021 -TSRA BKN045CB BKN090
     FM302300 03008KT P6SM VCTS BKN060CB BKN090
     FM310100 04005KT P6SM SCT060 BKN090
     FM310600 06004KT P6SM FEW250
     FM311500 07008KT P6SM SKC=

USA.gov is the U.S. government's official web portal to all federal, state and local government web resources and services.